Orlando Sanford International Airport
KSFB : now visible

Airfield :











YOU CAN JOIN US ON...

 
LOGIN :

Register | Disclaimer

   EN    FR    IT 

 









Legend :    VFR   Marginal VFR   IFR   Intensive IFR   Very Intensive IFR
Visi :
Ceiling :
>= 8 km
>= 3000ft
5 to 8 km
1000 to 3000 ft
1500m to 5 km
500 to 1000 ft
800 to 1500m
200 to 500 ft
< 800m
< 200 ft
Symbols :   Thunderstorms  Fog  Heavy snow  Heavy precipitations  Wind > 20 kt






- Airport Elevation : 55 ft
- IATA code : SFB


KSFB - Orlando Sanford International

CURRENT METAR :
  • 300953Z AUTO 28012KT 10SM BKN034 17/14 A2974 RMK AO2 SLP070 T01720139

EXPIRED METARs :
  • 300853Z AUTO 28012KT 10SM OVC038 17/14 A2973 RMK AO2 SLP066 T01720144 53000
  • 300812Z AUTO 30011G20KT 10SM SCT025 BKN041 17/14 A2971 RMK AO2 T01720144
  • 300753Z AUTO 30013KT 10SM OVC024 18/14 A2971 RMK AO2 SLP061 T01780144

TAF KSFB
Valid from the 30 at 06:00 until the 01 at 06:00 UTC


300551Z 3006/0106 29016G24KT P6SM OVC024
FM301000 29013KT P6SM SCT030
FM301500 30012KT P6SM SKC
FM010100 32005KT P6SM SKC
KZJX FIR / North America



MET'MAP, your aeronautical weather chart ! - Copyright ORBIFLY December 2007 - Disclaimer

ORBIFLY MET'MAP TEAM :

Programming & Development : Alexandra Zaïnal
Original concept : Baudouin d'Aumeries
Technical & hardware support : Manuel Goepfert
Assistance : Marc-Olivier Méhu




SOURCES & CREDITS :

   NOAA       Earth
Advisory